C45 weather

Manito Mitchell Airport
Manito, Illinois, United States

Public forecast

Using degrees Fahrenheit for public forecast. Weather courtesy of forecast.io.

METAR (pilot weather report)

Closest report is General Wayne A. Downing Peoria International Airport, 11.2 nm (20.7 km) NNE. Retrieved 2019/06/16 16:10 UTC (9 minutes ago):

KPIA 161610Z 34006KT 10SM BKN012 22/17 A2984

TAF (pilot weather forecast)

Closest forecast is General Wayne A. Downing Peoria International Airport, 11.2 nm (20.7 km) NNE. Retrieved 2019/06/16 12:54 UTC (3 hours ago):

TAF KPIA 161151Z 1612/1712 26005KT P6SM OVC014 FM161400 28007KT P6SM OVC035 FM170500 03006KT P6SM BKN045 FM170600 03005KT P6SM BKN018